createdAt,value
2023-03-21T00:16:31.325Z,14.00
2023-03-21T00:18:41.991Z,14.00
2023-03-21T00:20:52.177Z,14.00
2023-03-21T00:22:56.812Z,14.00
2023-03-21T00:25:53.388Z,14.00
2023-03-21T00:28:07.777Z,14.00
2023-03-21T00:30:13.632Z,14.00
2023-03-21T00:32:18.540Z,14.00
2023-03-21T00:34:31.898Z,14.00
2023-03-21T00:36:46.172Z,14.00
2023-03-21T00:38:49.723Z,14.00
2023-03-21T00:40:53.335Z,14.00
2023-03-21T00:42:56.670Z,14.00
2023-03-21T00:45:57.924Z,13.90
2023-03-21T00:48:02.788Z,13.70
2023-03-21T00:50:07.595Z,13.70
2023-03-21T00:55:38.781Z,13.60
2023-03-21T00:57:45.335Z,13.50
2023-03-21T00:59:50.814Z,13.40
2023-03-21T01:01:55.756Z,13.30
2023-03-21T01:04:05.458Z,13.30
2023-03-21T01:06:09.404Z,13.20
2023-03-21T01:08:25.113Z,13.20
2023-03-21T01:10:31.640Z,13.10
2023-03-21T01:12:37.983Z,13.10
2023-03-21T01:14:41.303Z,13.10
2023-03-21T01:16:44.693Z,13.10
2023-03-21T01:18:48.084Z,13.00
2023-03-21T01:21:38.899Z,13.00
2023-03-21T01:23:44.232Z,13.00
2023-03-21T01:25:49.165Z,13.00
2023-03-21T01:27:52.695Z,13.00
2023-03-21T01:29:56.286Z,13.00
2023-03-21T01:31:59.688Z,12.90
2023-03-21T01:34:03.128Z,12.90
2023-03-21T01:36:13.264Z,13.00
2023-03-21T01:38:31.387Z,13.00
2023-03-21T01:40:36.531Z,13.10
2023-03-21T01:42:40.059Z,13.00
2023-03-21T01:44:59.169Z,13.00
2023-03-21T01:47:11.183Z,13.00
2023-03-21T01:49:17.848Z,12.90
2023-03-21T01:51:40.849Z,13.00
2023-03-21T01:53:44.171Z,12.90
2023-03-21T01:55:51.204Z,12.90
2023-03-21T01:58:05.400Z,12.80
2023-03-21T02:00:13.822Z,12.80
2023-03-21T02:02:18.159Z,12.80
2023-03-21T02:04:28.347Z,12.70
2023-03-21T02:06:36.833Z,12.70
2023-03-21T02:08:40.211Z,12.60
2023-03-21T02:11:19.302Z,12.60
2023-03-21T02:13:23.078Z,12.60
2023-03-21T02:15:26.540Z,12.50
2023-03-21T02:17:32.488Z,12.50
2023-03-21T02:20:14.335Z,12.50
2023-03-21T02:22:45.841Z,12.50
2023-03-21T02:25:16.283Z,12.40
2023-03-21T02:27:25.757Z,12.50
2023-03-21T02:29:52.427Z,12.50
2023-03-21T02:32:03.419Z,12.50
2023-03-21T02:34:31.943Z,12.50
2023-03-21T02:37:04.670Z,12.50
2023-03-21T02:43:11.611Z,12.60
2023-03-21T02:45:21.636Z,12.70
2023-03-21T02:47:26.890Z,12.70
2023-03-21T02:49:32.485Z,12.70
2023-03-21T02:51:35.905Z,12.70
2023-03-21T02:53:41.655Z,12.70
2023-03-21T02:55:57.316Z,12.70
2023-03-21T02:58:11.655Z,12.60
2023-03-21T03:00:18.963Z,12.60
2023-03-21T03:02:24.370Z,12.60
2023-03-21T03:04:29.294Z,12.50
2023-03-21T03:06:37.179Z,12.50
2023-03-21T03:08:59.568Z,12.40
2023-03-21T03:11:12.589Z,12.30
2023-03-21T03:13:28.026Z,12.30
2023-03-21T03:15:36.771Z,12.20
2023-03-21T03:20:38.311Z,12.20
2023-03-21T03:22:44.413Z,12.20
2023-03-21T03:24:53.811Z,12.10
2023-03-21T03:26:58.469Z,12.10
2023-03-21T03:29:05.234Z,12.10
2023-03-21T03:31:12.349Z,11.90
2023-03-21T03:33:23.898Z,12.00
2023-03-21T03:35:27.315Z,12.00
2023-03-21T03:37:32.830Z,12.00
2023-03-21T03:39:38.897Z,12.00
2023-03-21T03:42:12.569Z,12.10
2023-03-21T03:44:10.423Z,12.10
2023-03-21T03:54:33.274Z,12.40
2023-03-21T03:56:39.185Z,12.50
2023-03-21T03:58:45.943Z,12.60
2023-03-21T04:00:50.195Z,12.60
2023-03-21T04:02:53.876Z,12.60
2023-03-21T04:04:57.900Z,12.70
2023-03-21T04:07:03.639Z,12.70
2023-03-21T04:09:43.258Z,12.80
2023-03-21T04:11:47.660Z,12.80
2023-03-21T04:13:52.555Z,12.90
2023-03-21T04:15:56.203Z,12.80
2023-03-21T04:17:59.659Z,12.90
2023-03-21T04:20:12.156Z,13.00
2023-03-21T04:26:21.322Z,13.10
2023-03-21T04:28:25.189Z,13.10
2023-03-21T04:30:30.325Z,13.10
2023-03-21T04:32:34.022Z,13.20
2023-03-21T04:37:59.084Z,13.40
2023-03-21T04:40:06.949Z,13.40
2023-03-21T04:42:10.732Z,13.40
2023-03-21T04:44:14.856Z,13.40
2023-03-21T04:46:19.728Z,13.30
2023-03-21T04:48:24.717Z,13.20
2023-03-21T04:50:28.643Z,13.20
2023-03-21T04:52:32.384Z,13.10
2023-03-21T04:54:37.190Z,13.10
2023-03-21T04:56:41.301Z,13.00
2023-03-21T04:58:44.713Z,13.00
2023-03-21T05:00:48.442Z,12.90
2023-03-21T05:02:53.591Z,12.90
2023-03-21T05:04:57.646Z,12.80
2023-03-21T05:07:01.039Z,12.70
2023-03-21T05:09:05.890Z,12.60
2023-03-21T05:11:10.415Z,12.60
2023-03-21T05:13:14.569Z,12.50
2023-03-21T05:15:21.496Z,12.40
2023-03-21T05:17:25.204Z,12.40
2023-03-21T05:19:35.672Z,12.40
2023-03-21T05:21:43.808Z,12.40
2023-03-21T05:26:28.822Z,12.30
2023-03-21T05:28:32.541Z,12.20
2023-03-21T05:30:36.082Z,12.20
2023-03-21T05:32:39.771Z,12.20
2023-03-21T05:34:44.799Z,12.20
2023-03-21T05:36:48.556Z,12.20
2023-03-21T05:46:58.975Z,12.30
2023-03-21T05:49:02.640Z,12.30
2023-03-21T05:51:08.036Z,12.30
2023-03-21T05:53:11.762Z,12.30
2023-03-21T05:55:15.601Z,12.30
2023-03-21T05:57:19.840Z,12.40
2023-03-21T05:59:23.301Z,12.50
2023-03-21T06:01:26.942Z,12.60
2023-03-21T06:03:30.554Z,12.60
2023-03-21T06:05:34.134Z,12.70
2023-03-21T06:07:59.208Z,12.80
2023-03-21T06:10:02.922Z,12.90
2023-03-21T06:12:06.985Z,13.00
2023-03-21T06:14:10.505Z,13.00
2023-03-21T06:16:14.118Z,13.10
2023-03-21T06:18:17.826Z,13.10
2023-03-21T06:20:24.227Z,13.20
2023-03-21T06:22:28.127Z,13.30
2023-03-21T06:24:33.968Z,13.40
2023-03-21T06:26:37.649Z,13.40
2023-03-21T06:28:41.607Z,13.40
2023-03-21T06:30:45.365Z,13.40
2023-03-21T06:32:49.380Z,13.40
2023-03-21T06:34:52.938Z,13.40
2023-03-21T06:36:56.460Z,13.50
2023-03-21T06:39:00.034Z,13.60
2023-03-21T06:41:05.196Z,13.70
2023-03-21T06:43:08.792Z,13.90
2023-03-21T06:45:12.751Z,14.00
2023-03-21T06:47:16.335Z,14.20
2023-03-21T06:49:20.340Z,14.50
2023-03-21T06:51:24.058Z,14.70
2023-03-21T06:53:28.340Z,15.00
2023-03-21T06:55:32.356Z,15.20
2023-03-21T06:57:37.651Z,15.40
2023-03-21T06:59:42.244Z,15.60
2023-03-21T07:01:45.698Z,15.80
2023-03-21T07:03:49.256Z,16.00
2023-03-21T07:05:52.758Z,16.20
2023-03-21T07:07:56.279Z,16.30
2023-03-21T07:09:59.843Z,16.50
2023-03-21T07:12:03.463Z,16.50
2023-03-21T07:14:08.523Z,16.60
2023-03-21T07:16:12.641Z,16.50
2023-03-21T07:18:16.353Z,16.50
2023-03-21T07:20:20.149Z,16.50
2023-03-21T07:22:23.644Z,16.60
2023-03-21T07:24:27.478Z,16.70
2023-03-21T07:26:32.015Z,16.80
2023-03-21T07:28:35.750Z,17.00
2023-03-21T07:30:40.624Z,17.10
2023-03-21T07:32:45.954Z,17.30
2023-03-21T07:34:49.396Z,17.40
2023-03-21T07:36:53.089Z,17.50
2023-03-21T07:38:56.651Z,17.60
2023-03-21T07:41:00.981Z,17.80
2023-03-21T07:43:04.893Z,17.70
2023-03-21T07:45:09.889Z,17.70
2023-03-21T07:47:15.205Z,17.70
2023-03-21T07:49:18.811Z,17.70
2023-03-21T07:51:22.297Z,17.80
2023-03-21T07:53:25.901Z,17.70
2023-03-21T07:55:29.884Z,17.80
2023-03-21T07:57:33.804Z,17.90
2023-03-21T07:59:37.803Z,17.90
2023-03-21T08:01:41.718Z,17.80
2023-03-21T08:03:48.254Z,17.80
2023-03-21T08:05:52.061Z,17.80
2023-03-21T08:07:56.192Z,17.80
2023-03-21T08:10:00.038Z,17.90
2023-03-21T08:12:03.770Z,18.10
2023-03-21T08:14:07.575Z,18.20
2023-03-21T08:16:11.514Z,18.20
2023-03-21T08:18:15.364Z,18.30
2023-03-21T08:20:22.116Z,18.20
2023-03-21T08:22:25.661Z,18.30
2023-03-21T08:24:30.327Z,18.30
2023-03-21T08:26:34.521Z,18.40
2023-03-21T08:28:40.490Z,18.50
2023-03-21T08:30:44.347Z,18.50
2023-03-21T08:32:48.045Z,18.60
2023-03-21T08:34:53.404Z,18.60
2023-03-21T08:36:58.321Z,18.70
2023-03-21T08:39:05.661Z,18.60
2023-03-21T08:41:09.321Z,18.60
2023-03-21T08:43:14.891Z,18.50
2023-03-21T08:45:19.373Z,18.50
2023-03-21T08:47:23.083Z,18.50
2023-03-21T08:49:27.201Z,18.50
2023-03-21T08:51:31.830Z,18.60
2023-03-21T08:53:36.928Z,18.70
2023-03-21T08:55:40.563Z,18.70
2023-03-21T08:57:44.149Z,18.70
2023-03-21T08:59:47.971Z,18.80
2023-03-21T09:01:51.876Z,18.80
2023-03-21T09:03:55.536Z,18.90
2023-03-21T09:05:59.480Z,18.90
2023-03-21T09:08:03.530Z,19.10
2023-03-21T09:10:25.694Z,19.00
2023-03-21T09:12:29.909Z,19.00
2023-03-21T09:14:33.408Z,18.90
2023-03-21T09:16:36.945Z,18.90
2023-03-21T09:18:47.464Z,18.90
2023-03-21T09:20:52.005Z,19.00
2023-03-21T09:22:55.595Z,19.10
2023-03-21T09:24:59.582Z,19.10
2023-03-21T09:27:05.160Z,19.20
2023-03-21T09:29:09.090Z,19.20
2023-03-21T09:31:15.532Z,19.20
2023-03-21T09:33:21.335Z,19.20
2023-03-21T09:35:27.151Z,19.30
2023-03-21T09:37:32.968Z,19.30
2023-03-21T09:39:37.213Z,19.30
2023-03-21T09:41:47.584Z,19.30
2023-03-21T09:44:00.547Z,19.20
2023-03-21T09:46:06.482Z,19.20
2023-03-21T09:48:17.754Z,19.10
2023-03-21T09:50:23.306Z,19.10
2023-03-21T09:52:29.056Z,19.20
2023-03-21T09:54:34.954Z,19.30
2023-03-21T09:56:38.854Z,19.40
2023-03-21T09:58:44.954Z,19.50
2023-03-21T10:00:56.850Z,19.50
2023-03-21T10:03:04.788Z,19.50
2023-03-21T10:05:14.490Z,19.50
2023-03-21T10:07:19.985Z,19.40
2023-03-21T10:09:25.472Z,19.40
2023-03-21T10:11:30.893Z,19.60
2023-03-21T10:13:35.607Z,19.60
2023-03-21T10:15:39.487Z,19.50
2023-03-21T10:17:45.054Z,19.60
2023-03-21T10:19:49.220Z,19.60
2023-03-21T10:22:03.075Z,19.40
2023-03-21T10:24:11.757Z,19.30
2023-03-21T10:26:21.508Z,19.10
2023-03-21T10:28:26.494Z,19.00
2023-03-21T10:30:40.765Z,18.90
2023-03-21T10:32:46.120Z,18.90
2023-03-21T10:34:52.832Z,18.90
2023-03-21T10:36:56.462Z,18.70
2023-03-21T10:39:01.842Z,18.40
2023-03-21T10:41:05.613Z,18.30
2023-03-21T10:43:34.050Z,18.30
2023-03-21T10:45:38.046Z,18.20
2023-03-21T10:47:47.972Z,18.00
2023-03-21T10:50:06.944Z,17.70
2023-03-21T10:52:12.889Z,17.40
2023-03-21T10:54:17.596Z,17.20
2023-03-21T10:56:21.335Z,17.00
2023-03-21T10:58:28.144Z,16.80
2023-03-21T11:00:36.065Z,16.80
2023-03-21T11:02:39.666Z,16.60
2023-03-21T11:04:44.731Z,16.40
2023-03-21T11:06:53.070Z,16.30
2023-03-21T11:08:58.065Z,16.20
2023-03-21T11:11:03.592Z,16.10
2023-03-21T11:13:09.479Z,16.00
2023-03-21T11:15:28.600Z,16.00
2023-03-21T11:17:32.757Z,15.80
2023-03-21T11:19:37.586Z,15.70
2023-03-21T11:21:44.653Z,15.70
2023-03-21T11:23:49.744Z,15.70
2023-03-21T11:25:53.356Z,15.60
2023-03-21T11:27:57.246Z,15.50
2023-03-21T11:30:02.185Z,15.40
2023-03-21T11:32:12.443Z,15.40
2023-03-21T11:34:27.333Z,15.30
2023-03-21T11:36:39.261Z,15.30
2023-03-21T11:38:45.107Z,15.20
2023-03-21T11:40:54.567Z,15.00
2023-03-21T11:42:58.654Z,15.00
2023-03-21T11:45:04.236Z,14.90
2023-03-21T11:47:09.583Z,14.90
2023-03-21T11:49:13.488Z,14.80
2023-03-21T11:51:23.102Z,14.80
2023-03-21T11:53:35.598Z,14.80
2023-03-21T11:55:46.544Z,14.80
2023-03-21T11:57:57.995Z,14.80
2023-03-21T12:00:10.878Z,14.90
2023-03-21T12:02:28.513Z,14.80
2023-03-21T12:04:42.324Z,14.80
2023-03-21T12:06:47.950Z,14.90
2023-03-21T12:08:56.096Z,14.90
2023-03-21T12:11:04.509Z,14.90
2023-03-21T12:13:31.456Z,14.90
2023-03-21T12:15:37.892Z,15.00
2023-03-21T12:17:45.479Z,15.10
2023-03-21T12:19:55.662Z,15.30
2023-03-21T12:22:02.402Z,15.40
2023-03-21T12:24:07.609Z,15.50
2023-03-21T12:26:29.348Z,15.60
2023-03-21T12:28:37.085Z,15.70
2023-03-21T12:30:46.543Z,15.70
2023-03-21T12:32:59.371Z,15.80
2023-03-21T12:35:12.150Z,16.00
2023-03-21T12:37:18.894Z,16.10
2023-03-21T12:39:29.639Z,16.30
2023-03-21T12:41:36.468Z,16.40
2023-03-21T12:43:44.833Z,16.50
2023-03-21T12:45:50.187Z,16.60
2023-03-21T12:47:56.600Z,16.70
2023-03-21T12:50:02.653Z,16.70
2023-03-21T12:52:07.368Z,16.80
2023-03-21T12:54:17.628Z,16.80
2023-03-21T12:56:24.008Z,16.80
2023-03-21T12:58:29.265Z,16.70
2023-03-21T13:00:38.567Z,16.70
2023-03-21T13:02:43.446Z,16.60
2023-03-21T13:04:49.818Z,16.50
2023-03-21T13:06:53.508Z,16.40
2023-03-21T13:08:59.783Z,16.40
2023-03-21T13:11:03.528Z,16.30
2023-03-21T13:13:13.645Z,16.20
2023-03-21T13:15:54.737Z,16.20
2023-03-21T13:18:01.161Z,16.20
2023-03-21T13:20:09.831Z,16.30
2023-03-21T13:22:16.447Z,16.40
2023-03-21T13:24:33.601Z,16.40
2023-03-21T13:26:41.479Z,16.50
2023-03-21T13:28:45.589Z,16.50
2023-03-21T13:30:50.900Z,16.60
2023-03-21T13:32:58.181Z,16.60
2023-03-21T13:35:02.552Z,16.50
2023-03-21T13:37:06.235Z,16.40
2023-03-21T13:39:18.309Z,16.40
2023-03-21T13:41:23.678Z,16.40
2023-03-21T13:43:41.692Z,16.30
2023-03-21T13:45:48.385Z,16.20
2023-03-21T13:47:58.016Z,16.10
2023-03-21T13:50:24.254Z,16.00
2023-03-21T13:52:28.660Z,15.80
2023-03-21T13:54:48.837Z,15.70
2023-03-21T13:56:54.040Z,15.70
2023-03-21T13:59:02.566Z,15.60
2023-03-21T14:01:26.770Z,15.50
2023-03-21T14:03:32.420Z,15.50
2023-03-21T14:05:37.894Z,15.50
2023-03-21T14:07:43.144Z,15.50
2023-03-21T14:09:48.089Z,15.60
2023-03-21T14:11:54.669Z,15.70
2023-03-21T14:14:00.909Z,15.60
2023-03-21T14:16:07.788Z,15.60
2023-03-21T14:18:27.888Z,15.60
2023-03-21T14:20:42.453Z,15.60
2023-03-21T14:22:48.401Z,15.70
2023-03-21T14:24:58.499Z,15.70
2023-03-21T14:27:04.714Z,15.60
2023-03-21T14:29:22.867Z,15.60
2023-03-21T14:31:29.309Z,15.60
2023-03-21T14:33:37.127Z,15.60
2023-03-21T14:35:42.586Z,15.70
2023-03-21T14:37:47.054Z,15.70
2023-03-21T14:40:00.400Z,15.70
2023-03-21T14:42:05.800Z,15.60
2023-03-21T14:44:25.480Z,15.60
2023-03-21T14:46:30.162Z,15.60
2023-03-21T14:48:34.059Z,15.60
2023-03-21T14:50:42.096Z,15.60
2023-03-21T14:53:16.775Z,15.60
2023-03-21T14:55:28.908Z,15.60
2023-03-21T14:57:33.745Z,15.60
2023-03-21T14:59:38.439Z,15.60
2023-03-21T15:01:42.075Z,15.50
2023-03-21T15:03:47.859Z,15.50
2023-03-21T15:05:53.032Z,15.50
2023-03-21T15:08:02.187Z,15.50
2023-03-21T15:10:07.808Z,15.50
2023-03-21T15:12:15.334Z,15.60
2023-03-21T15:14:18.844Z,15.50
2023-03-21T15:16:22.474Z,15.60
2023-03-21T15:18:28.001Z,15.60
2023-03-21T15:20:33.384Z,15.50
2023-03-21T15:22:39.607Z,15.60
2023-03-21T15:25:07.790Z,15.70
2023-03-21T15:27:16.125Z,15.70
2023-03-21T15:29:20.026Z,15.80
2023-03-21T15:31:25.485Z,15.90
2023-03-21T15:33:29.043Z,16.00
2023-03-21T15:36:30.745Z,16.00
2023-03-21T15:38:40.207Z,16.20
2023-03-21T15:40:44.751Z,16.40
2023-03-21T15:42:48.524Z,16.50
2023-03-21T15:45:00.339Z,16.50
2023-03-21T15:47:04.280Z,16.60
2023-03-21T15:49:35.434Z,16.70
2023-03-21T15:51:39.219Z,16.80
2023-03-21T15:53:44.689Z,17.00
2023-03-21T15:55:50.202Z,17.00
2023-03-21T15:57:54.615Z,17.00
2023-03-21T16:00:04.541Z,17.10
2023-03-21T16:02:16.452Z,17.00
2023-03-21T16:04:20.124Z,17.00
2023-03-21T16:06:25.921Z,16.80
2023-03-21T16:08:31.866Z,16.80
2023-03-21T16:10:43.320Z,16.70
2023-03-21T16:12:47.118Z,16.70
2023-03-21T16:14:51.499Z,16.70
2023-03-21T16:16:55.416Z,16.70
2023-03-21T16:18:59.992Z,16.70
2023-03-21T16:21:08.932Z,16.70
2023-03-21T16:23:12.956Z,16.80
2023-03-21T16:25:16.918Z,16.80
2023-03-21T16:27:27.237Z,16.80
2023-03-21T16:29:31.604Z,16.80
2023-03-21T16:31:36.452Z,16.70
2023-03-21T16:33:40.235Z,16.80
2023-03-21T16:35:44.031Z,16.80
2023-03-21T16:37:53.279Z,16.70
2023-03-21T16:39:57.075Z,16.70
2023-03-21T16:42:00.698Z,16.70
2023-03-21T16:44:05.696Z,16.60
2023-03-21T16:46:13.413Z,16.60
2023-03-21T16:48:18.173Z,16.50
2023-03-21T16:50:25.443Z,16.40
2023-03-21T16:52:29.099Z,16.40
2023-03-21T16:54:33.065Z,16.30
2023-03-21T16:56:38.680Z,16.30
2023-03-21T16:58:42.586Z,16.30
2023-03-21T17:00:47.793Z,16.20
2023-03-21T17:02:52.241Z,16.20
2023-03-21T17:04:55.854Z,16.10
2023-03-21T17:06:59.456Z,16.10
2023-03-21T17:09:04.284Z,16.00
2023-03-21T17:11:09.949Z,16.00
2023-03-21T17:13:13.617Z,16.00
2023-03-21T17:15:17.523Z,16.00
2023-03-21T17:17:23.391Z,15.90
2023-03-21T17:19:28.173Z,15.90
2023-03-21T17:21:32.347Z,15.90
2023-03-21T17:23:36.901Z,15.90
2023-03-21T17:25:40.781Z,15.90
2023-03-21T17:27:44.499Z,16.00
2023-03-21T17:29:49.661Z,16.00
2023-03-21T17:31:53.354Z,15.90
2023-03-21T17:33:58.195Z,15.90
2023-03-21T17:36:02.010Z,15.80
2023-03-21T17:38:05.761Z,15.80
2023-03-21T17:40:11.944Z,15.80
2023-03-21T17:42:18.347Z,15.80
2023-03-21T17:44:22.278Z,15.80
2023-03-21T17:46:27.320Z,15.80
2023-03-21T17:48:31.636Z,15.70
2023-03-21T17:50:37.695Z,15.60
2023-03-21T17:52:44.160Z,15.40
2023-03-21T17:55:11.595Z,15.40
2023-03-21T17:57:15.333Z,15.30
2023-03-21T17:59:18.795Z,15.10
2023-03-21T18:01:24.066Z,15.10
2023-03-21T18:03:27.457Z,15.00
2023-03-21T18:05:31.084Z,14.90
2023-03-21T18:08:05.836Z,14.80
2023-03-21T18:09:59.909Z,14.70
2023-03-21T18:12:03.493Z,14.60
2023-03-21T18:14:16.298Z,14.70
2023-03-21T18:16:22.469Z,14.70
2023-03-21T18:18:27.479Z,14.70
2023-03-21T18:20:52.209Z,14.60
2023-03-21T18:22:56.070Z,14.60
2023-03-21T18:25:10.149Z,14.60
2023-03-21T18:27:14.586Z,14.60
2023-03-21T18:30:17.524Z,14.50
2023-03-21T18:31:51.583Z,14.50
2023-03-21T18:34:07.461Z,14.60
2023-03-21T18:36:13.933Z,14.60
2023-03-21T18:38:19.215Z,14.60
2023-03-21T18:40:24.403Z,14.60
2023-03-21T18:42:30.806Z,14.60
2023-03-21T18:44:38.680Z,14.70
2023-03-21T18:46:47.311Z,14.70
2023-03-21T18:49:56.184Z,14.70
2023-03-21T18:51:34.783Z,14.70
2023-03-21T18:53:39.795Z,14.80
2023-03-21T18:55:46.546Z,14.80
2023-03-21T18:57:52.368Z,14.80
2023-03-21T18:59:56.379Z,14.80
2023-03-21T19:01:59.960Z,14.80
2023-03-21T19:04:20.958Z,14.90
2023-03-21T19:06:27.199Z,14.90
2023-03-21T19:08:31.218Z,15.00
2023-03-21T19:10:36.060Z,15.00
2023-03-21T19:12:39.748Z,15.00
2023-03-21T19:14:43.400Z,15.00
2023-03-21T19:17:32.709Z,15.10
2023-03-21T19:19:11.326Z,15.10
2023-03-21T19:21:14.750Z,15.20
2023-03-21T19:23:18.825Z,15.10
2023-03-21T19:25:22.373Z,15.20
2023-03-21T19:27:43.062Z,15.20
2023-03-21T19:29:59.770Z,15.20
2023-03-21T19:32:10.185Z,15.20
2023-03-21T19:34:14.952Z,15.20
2023-03-21T19:36:22.953Z,15.20
2023-03-21T19:38:28.508Z,15.20
2023-03-21T19:41:22.969Z,15.20
2023-03-21T19:43:33.127Z,15.20
2023-03-21T19:45:36.876Z,15.20
2023-03-21T19:47:40.536Z,15.10
2023-03-21T19:52:08.132Z,15.10
2023-03-21T19:54:13.248Z,15.10
2023-03-21T19:56:22.860Z,15.10
2023-03-21T19:58:29.362Z,15.10
2023-03-21T20:00:32.820Z,15.10
2023-03-21T20:02:37.254Z,15.10
2023-03-21T20:04:41.070Z,15.10
2023-03-21T20:06:44.665Z,15.00
2023-03-21T20:09:41.291Z,15.00
2023-03-21T20:11:21.837Z,14.90
2023-03-21T20:13:25.414Z,14.90
2023-03-21T20:15:30.784Z,14.90
2023-03-21T20:17:34.646Z,14.80
2023-03-21T20:19:38.134Z,14.70
2023-03-21T20:21:49.705Z,14.60
2023-03-21T20:23:58.212Z,14.60
2023-03-21T20:26:01.623Z,14.60
2023-03-21T20:28:15.708Z,14.60
2023-03-21T20:30:23.616Z,14.60
2023-03-21T20:32:28.353Z,14.60
2023-03-21T20:34:32.042Z,14.70
2023-03-21T20:36:40.831Z,14.70
2023-03-21T20:38:46.570Z,14.60
2023-03-21T20:40:51.022Z,14.60
2023-03-21T20:43:00.208Z,14.60
2023-03-21T20:45:07.158Z,14.60
2023-03-21T20:47:10.880Z,14.60
2023-03-21T20:49:32.371Z,14.60
2023-03-21T20:54:03.668Z,14.40
2023-03-21T20:56:07.917Z,14.30
2023-03-21T20:58:36.557Z,14.30
2023-03-21T21:00:38.470Z,14.20
2023-03-21T21:02:43.043Z,14.20
2023-03-21T21:05:23.670Z,14.20
2023-03-21T21:07:49.114Z,14.10
2023-03-21T21:09:52.620Z,14.10
2023-03-21T21:12:06.971Z,14.10
2023-03-21T21:14:11.060Z,14.10
2023-03-21T21:16:14.697Z,14.10
2023-03-21T21:18:18.475Z,14.00
2023-03-21T21:24:44.101Z,14.00
2023-03-21T21:26:47.528Z,14.00
2023-03-21T21:28:53.736Z,14.10
2023-03-21T21:30:58.488Z,14.10
2023-03-21T21:33:21.964Z,14.00
2023-03-21T21:35:25.474Z,13.90
2023-03-21T21:37:28.933Z,13.90
2023-03-21T21:39:38.018Z,13.90
2023-03-21T21:41:43.315Z,14.00
2023-03-21T21:43:47.025Z,14.00
2023-03-21T21:45:51.047Z,14.00
2023-03-21T21:47:54.546Z,14.00
2023-03-21T21:50:23.062Z,14.10
2023-03-21T21:52:26.857Z,14.10
2023-03-21T21:54:30.315Z,14.10
2023-03-21T21:56:38.514Z,14.10
2023-03-21T21:58:47.166Z,14.10
2023-03-21T22:00:50.957Z,14.10
2023-03-21T22:02:54.835Z,14.10
2023-03-21T22:04:58.140Z,14.10
2023-03-21T22:07:44.594Z,14.10
2023-03-21T22:09:48.203Z,14.10
2023-03-21T22:11:51.698Z,14.10
2023-03-21T22:13:56.986Z,14.10
2023-03-21T22:16:00.507Z,14.10
2023-03-21T22:18:04.051Z,14.10
2023-03-21T22:20:50.174Z,14.10
2023-03-21T22:22:58.304Z,14.00
2023-03-21T22:25:01.600Z,14.00
2023-03-21T22:27:05.078Z,13.90
2023-03-21T22:29:11.537Z,13.80
2023-03-21T22:31:16.042Z,13.80
2023-03-21T22:33:20.105Z,13.70
2023-03-21T22:35:23.447Z,13.70
2023-03-21T22:38:02.256Z,13.60
2023-03-21T22:40:08.467Z,13.60
2023-03-21T22:42:13.006Z,13.70
2023-03-21T22:44:17.999Z,13.70
2023-03-21T22:46:21.528Z,13.70
2023-03-21T22:48:25.005Z,13.60
2023-03-21T22:50:28.860Z,13.60
2023-03-21T22:52:32.348Z,13.60
2023-03-21T22:54:36.044Z,13.60
2023-03-21T22:56:39.571Z,13.60
2023-03-21T22:58:45.491Z,13.60
2023-03-21T23:00:50.584Z,13.50
2023-03-21T23:02:54.174Z,13.50
2023-03-21T23:04:57.548Z,13.50
2023-03-21T23:07:01.248Z,13.40
2023-03-21T23:09:04.763Z,13.40
2023-03-21T23:16:05.149Z,13.40
2023-03-21T23:18:09.967Z,13.40
2023-03-21T23:20:13.633Z,13.40
2023-03-21T23:22:17.036Z,13.30
2023-03-21T23:24:33.271Z,13.30
2023-03-21T23:26:36.670Z,13.30
2023-03-21T23:28:40.029Z,13.40
2023-03-21T23:30:43.344Z,13.30
2023-03-21T23:32:46.693Z,13.40
2023-03-21T23:34:51.496Z,13.40
2023-03-21T23:36:54.772Z,13.40
2023-03-21T23:38:58.064Z,13.40
2023-03-21T23:41:04.521Z,13.40
2023-03-21T23:43:09.969Z,13.40
2023-03-21T23:45:13.575Z,13.40
2023-03-21T23:47:16.976Z,13.40
2023-03-21T23:49:20.221Z,13.40
2023-03-21T23:51:25.092Z,13.40
2023-03-21T23:53:28.529Z,13.30
2023-03-21T23:58:48.006Z,13.30
